Time;durP1;ratioP1;P1;durP2;ratioP2;P2;SDS_P1;SDS_P2;PMS_P1;PMS_P2;Temp;Humidity;BMP_temperature;BMP_pressure;BME280_temperature;BME280_humidity;BME280_pressure;Samples;Min_cycle;Max_cycle;Signal;HPM_P1;HPM_P2
2022/11/22 00:00:17;;;;;;;13.00;2.80;;;;;;;13.47;77.26;98241.11;24645;1330;3027043;-72
2022/11/22 00:02:46;;;;;;;14.20;2.80;;;;;;;13.25;77.99;98245.70;24577;1337;3029720;-69
2022/11/22 00:05:15;;;;;;;15.90;3.10;;;;;;;12.99;79.31;98251.46;24532;1331;3027531;-72
2022/11/22 00:07:44;;;;;;;18.50;2.60;;;;;;;12.75;80.33;98254.08;24600;1331;3053446;-70
2022/11/22 00:10:13;;;;;;;14.70;2.90;;;;;;;12.68;80.97;98249.05;24543;1324;3028907;-70
2022/11/22 00:12:43;;;;;;;14.20;2.30;;;;;;;12.57;81.48;98246.91;24594;1327;3050760;-70
2022/11/22 00:15:13;;;;;;;10.00;2.40;;;;;;;13.05;80.76;98240.30;24570;1331;3026314;-70
2022/11/22 00:17:42;;;;;;;13.40;2.60;;;;;;;13.22;79.67;98252.52;24589;1337;3028325;-70
2022/11/22 00:20:12;;;;;;;11.20;3.10;;;;;;;13.44;78.75;98248.80;24554;1331;3026577;-70
2022/11/22 00:22:41;;;;;;;15.10;3.00;;;;;;;13.07;79.67;98255.96;24583;1330;3053377;-71
2022/11/22 00:25:10;;;;;;;13.20;3.10;;;;;;;12.80;81.16;98255.73;24563;1331;3028377;-69
2022/11/22 00:27:39;;;;;;;12.50;3.40;;;;;;;12.62;82.22;98249.42;24534;1321;3027434;-67
2022/11/22 00:30:09;;;;;;;10.10;2.30;;;;;;;12.51;83.08;98251.48;24494;1326;3053637;-66
2022/11/22 00:32:39;;;;;;;9.40;2.80;;;;;;;12.96;81.99;98240.10;24585;1326;3027354;-73
2022/11/22 00:35:10;;;;;;;11.20;3.00;;;;;;;13.15;80.61;98237.89;24536;1324;3026466;-72
2022/11/22 00:37:39;;;;;;;10.20;2.80;;;;;;;13.09;81.06;98239.67;24525;1330;3026105;-69
2022/11/22 00:40:09;;;;;;;15.40;3.10;;;;;;;13.08;80.70;98233.73;24575;1323;3029072;-68
2022/11/22 00:42:39;;;;;;;12.90;2.70;;;;;;;12.96;81.37;98239.77;24537;1324;3026472;-67
2022/11/22 00:45:09;;;;;;;12.60;2.70;;;;;;;12.78;81.90;98242.80;24625;1331;3025382;-68
2022/11/22 00:47:38;;;;;;;9.60;2.10;;;;;;;12.48;83.84;98249.03;24583;1331;3028257;-67
2022/11/22 00:50:08;;;;;;;8.10;2.20;;;;;;;12.94;82.52;98239.94;24506;1330;3027647;-67
2022/11/22 00:52:38;;;;;;;12.30;2.70;;;;;;;13.19;81.15;98232.73;24573;1338;3054805;-66
2022/11/22 00:55:07;;;;;;;15.90;3.30;;;;;;;13.29;80.47;98223.64;24526;1323;3026960;-69
2022/11/22 00:57:37;;;;;;;12.70;3.10;;;;;;;13.07;81.20;98230.70;24587;1335;3027648;-70
2022/11/22 01:00:08;;;;;;;19.20;4.00;;;;;;;12.86;82.14;98235.52;24544;1331;3029080;-68
2022/11/22 01:02:38;;;;;;;14.70;3.70;;;;;;;12.59;83.46;98249.69;24480;1330;3024906;-68
2022/11/22 01:05:07;;;;;;;17.10;3.00;;;;;;;12.43;84.49;98258.17;24562;1323;3026270;-68
2022/11/22 01:07:37;;;;;;;11.00;1.90;;;;;;;12.77;83.82;98255.66;24523;1337;3049973;-68
2022/11/22 01:10:06;;;;;;;11.70;2.80;;;;;;;13.13;81.95;98247.52;24607;1322;3027388;-68
2022/11/22 01:12:38;;;;;;;16.80;3.40;;;;;;;12.97;82.31;98250.35;24506;1323;3052338;-65
2022/11/22 01:15:07;;;;;;;15.40;2.70;;;;;;;12.80;83.20;98253.12;24527;1324;3026141;-66
2022/11/22 01:17:37;;;;;;;15.40;2.70;;;;;;;12.66;83.61;98258.05;24586;1323;3050150;-70
2022/11/22 01:20:07;;;;;;;17.50;2.90;;;;;;;12.33;85.67;98258.06;24563;1329;3027431;-70
2022/11/22 01:22:36;;;;;;;11.70;2.00;;;;;;;12.26;86.18;98261.99;24626;1337;3053227;-68
2022/11/22 01:25:06;;;;;;;7.10;1.90;;;;;;;12.78;84.70;98254.13;24499;1338;3026719;-67
2022/11/22 01:27:36;;;;;;;16.10;2.80;;;;;;;13.28;82.14;98244.41;24580;1330;3053449;-68
2022/11/22 01:30:08;;;;;;;10.60;2.40;;;;;;;13.33;81.43;98252.08;24580;1324;3028684;-68
2022/11/22 01:32:38;;;;;;;17.30;2.90;;;;;;;12.99;82.40;98252.09;24539;1330;3057907;-67
2022/11/22 01:35:07;;;;;;;13.40;3.00;;;;;;;12.77;83.39;98252.73;24585;1323;3029313;-68
2022/11/22 01:37:36;;;;;;;14.60;3.80;;;;;;;12.60;84.60;98262.95;24591;1330;3051277;-67
2022/11/22 01:40:09;;;;;;;10.90;2.30;;;;;;;12.55;84.77;98268.34;24553;1331;3026017;-67
2022/11/22 04:28:22;;;;;;;10.90;3.50;;;;;;;7.64;97.12;98338.57;31024;1337;3018510;-61
2022/11/22 04:33:39;;;;;;;6.40;3.50;;;;;;;9.09;90.05;98324.39;24389;1339;3050592;-63
2022/11/22 04:36:10;;;;;;;4.90;2.90;;;;;;;8.90;89.05;98331.47;24393;1340;3027680;-60
2022/11/22 04:38:39;;;;;;;4.50;2.70;;;;;;;8.97;88.70;98326.11;24386;1338;3026396;-61
2022/11/22 04:41:05;;;;;;;2.90;2.00;;;;;;;8.61;87.36;98332.70;23662;1332;4753708;-62
2022/11/22 04:46:22;;;;;;;2.90;2.10;;;;;;;8.87;84.60;98327.84;24425;1337;3068259;-60
2022/11/22 04:48:52;;;;;;;3.60;2.20;;;;;;;8.84;82.98;98331.23;24449;1338;3028345;-63
2022/11/22 04:54:08;;;;;;;4.30;2.70;;;;;;;8.05;85.02;98341.77;24454;1330;3069224;-60
2022/11/22 04:56:38;;;;;;;3.90;2.50;;;;;;;8.00;85.54;98336.64;24481;1338;3025903;-61
2022/11/22 04:59:07;;;;;;;4.30;2.20;;;;;;;7.78;85.75;98347.41;24389;1323;3028524;-62
2022/11/22 05:01:37;;;;;;;3.60;1.90;;;;;;;7.67;86.21;98353.70;24470;1337;3068395;-61
2022/11/22 05:04:06;;;;;;;4.70;2.50;;;;;;;8.05;85.30;98343.68;24420;1328;3026398;-64
2022/11/22 05:06:35;;;;;;;5.80;3.20;;;;;;;8.38;83.52;98344.36;24433;1341;3048531;-58
2022/11/22 05:09:05;;;;;;;5.50;2.80;;;;;;;8.42;82.17;98351.40;24420;1337;3026231;-61
2022/11/22 05:11:34;;;;;;;6.70;3.50;;;;;;;7.90;83.27;98355.46;24450;1346;3029020;-62
2022/11/22 05:14:03;;;;;;;6.70;3.70;;;;;;;7.55;84.75;98371.88;24336;1343;3049897;-61
2022/11/22 05:16:33;;;;;;;6.80;4.10;;;;;;;7.39;85.53;98369.42;24395;1336;3029427;-61
2022/11/22 05:19:02;;;;;;;5.30;2.90;;;;;;;7.24;86.14;98377.75;24443;1319;3026419;-61
2022/11/22 05:21:34;;;;;;;5.60;2.70;;;;;;;7.68;85.42;98369.83;24408;1340;3049110;-60
2022/11/22 05:24:04;;;;;;;5.90;2.90;;;;;;;8.46;81.76;98364.76;24389;1336;3028759;-62
2022/11/22 05:26:34;;;;;;;5.70;3.50;;;;;;;8.32;79.91;98366.77;24418;1343;3028504;-60
2022/11/22 05:29:05;;;;;;;7.10;4.70;;;;;;;7.64;81.19;98364.33;24472;1336;3027400;-66
2022/11/22 05:31:35;;;;;;;10.70;5.20;;;;;;;7.58;81.91;98367.34;24534;1343;3027913;-58
2022/11/22 05:34:04;;;;;;;11.70;5.40;;;;;;;7.38;81.81;98367.42;24447;1334;3028410;-63
2022/11/22 05:36:33;;;;;;;13.10;5.60;;;;;;;7.07;81.99;98362.83;24474;1327;3028740;-60
2022/11/22 05:39:02;;;;;;;6.50;3.50;;;;;;;6.79;82.94;98360.75;24542;1334;3050364;-61
2022/11/22 05:41:31;;;;;;;6.40;3.60;;;;;;;7.35;82.06;98368.48;24467;1335;3029105;-61
2022/11/22 05:44:00;;;;;;;7.20;3.60;;;;;;;6.99;79.48;98370.94;24586;1337;3027768;-62
2022/11/22 05:46:30;;;;;;;7.90;4.30;;;;;;;7.13;79.93;98366.97;24502;1331;3052943;-64
2022/11/22 05:48:59;;;;;;;9.90;4.90;;;;;;;6.88;79.66;98368.34;24468;1327;3029601;-62
2022/11/22 05:51:30;;;;;;;10.50;5.70;;;;;;;6.52;80.93;98393.90;24438;1334;3055888;-63
2022/11/22 05:53:59;;;;;;;9.50;5.00;;;;;;;6.54;80.99;98398.82;24450;1332;3027215;-60
2022/11/22 05:56:28;;;;;;;9.80;5.00;;;;;;;6.21;82.26;98410.01;24519;1327;3027185;-61
2022/11/22 05:58:57;;;;;;;5.90;3.50;;;;;;;5.83;83.28;98421.54;24534;1333;3056540;-63
2022/11/22 06:01:27;;;;;;;6.00;3.30;;;;;;;5.97;82.83;98414.02;24488;1333;3025734;-63
2022/11/22 06:03:55;;;;;;;5.00;2.90;;;;;;;6.65;80.90;98403.00;24449;1327;3026682;-60
2022/11/22 06:06:25;;;;;;;7.60;4.10;;;;;;;7.03;79.07;98396.81;24492;1324;3055701;-62
2022/11/22 06:08:54;;;;;;;9.00;4.90;;;;;;;6.46;80.60;98415.27;24572;1326;3026479;-63
2022/11/22 06:11:26;;;;;;;10.90;4.90;;;;;;;6.26;81.00;98397.70;24540;1325;3049500;-59
2022/11/22 06:13:57;;;;;;;7.00;3.70;;;;;;;6.14;81.33;98396.33;24478;1334;3027223;-64
2022/11/22 06:16:28;;;;;;;5.20;3.00;;;;;;;6.04;80.91;98397.39;24491;1327;3054098;-63
2022/11/22 06:18:57;;;;;;;7.00;3.80;;;;;;;5.86;80.00;98405.20;24505;1334;3026940;-60
2022/11/22 06:21:27;;;;;;;5.10;1.80;;;;;;;5.68;80.94;98396.89;24505;1337;3056881;-61
2022/11/22 06:23:56;;;;;;;4.30;2.00;;;;;;;5.93;80.53;98395.64;24508;1334;3026238;-65
2022/11/22 06:26:26;;;;;;;3.40;2.30;;;;;;;6.55;78.55;98399.77;24487;1327;3027908;-62
2022/11/22 06:28:55;;;;;;;6.10;3.10;;;;;;;6.54;76.78;98406.85;24470;1333;3028964;-64
2022/11/22 06:31:25;;;;;;;6.20;3.10;;;;;;;6.47;77.14;98413.30;24535;1331;3029663;-63
2022/11/22 06:33:56;;;;;;;6.60;4.00;;;;;;;6.09;77.56;98421.79;24517;1340;3053466;-62
2022/11/22 06:36:50;;;;;;;7.50;3.20;;;;;;;5.60;79.58;98431.55;24547;1324;3051467;-59
2022/11/22 06:39:21;;;;;;;5.40;3.10;;;;;;;5.09;80.50;98445.99;24491;1326;3028827;-61
2022/11/22 06:41:51;;;;;;;3.40;2.40;;;;;;;4.99;80.59;98444.46;24439;1338;3027740;-60
2022/11/22 06:44:20;;;;;;;5.00;2.70;;;;;;;4.99;80.31;98442.05;24486;1333;3029489;-63
2022/11/22 06:46:49;;;;;;;4.30;2.20;;;;;;;4.89;80.69;98449.15;24491;1333;3052822;-62
2022/11/22 06:49:19;;;;;;;4.40;2.50;;;;;;;5.66;78.71;98446.33;24492;1324;3028301;-63
2022/11/22 06:51:50;;;;;;;4.90;2.70;;;;;;;5.87;75.97;98454.36;24566;1333;3052176;-63
2022/11/22 06:54:18;;;;;;;7.20;3.70;;;;;;;5.99;74.47;98450.02;24526;1334;3026966;-61
2022/11/22 06:56:47;;;;;;;6.40;3.00;;;;;;;5.86;75.39;98447.83;24422;1326;3053772;-65
2022/11/22 06:59:17;;;;;;;9.30;4.50;;;;;;;5.56;75.47;98430.56;24576;1324;3028400;-61
2022/11/22 07:01:46;;;;;;;7.40;3.60;;;;;;;5.22;77.14;98444.27;24682;1334;3052614;-63
2022/11/22 07:04:15;;;;;;;10.60;4.40;;;;;;;5.10;77.25;98437.96;24545;1333;3029720;-63
2022/11/22 07:06:44;;;;;;;9.50;5.10;;;;;;;5.17;76.81;98456.89;24535;1341;3056112;-63
2022/11/22 07:09:14;;;;;;;12.80;6.60;;;;;;;4.80;78.62;98450.88;24500;1323;3028829;-64
2022/11/22 07:11:44;;;;;;;13.80;6.70;;;;;;;4.74;78.81;98445.98;24533;1336;3028800;-61
2022/11/22 07:14:13;;;;;;;4.80;2.80;;;;;;;4.57;80.29;98453.11;24525;1332;3027297;-66
2022/11/22 07:16:42;;;;;;;4.80;2.90;;;;;;;5.23;79.72;98454.77;24540;1337;3053492;-61
2022/11/22 07:19:11;;;;;;;2.90;1.90;;;;;;;5.82;76.74;98446.98;24682;1324;3025787;-63
2022/11/22 07:21:42;;;;;;;3.50;2.50;;;;;;;5.90;76.14;98446.55;24624;1335;3055553;-64
2022/11/22 07:24:11;;;;;;;3.50;2.60;;;;;;;5.85;75.92;98440.07;24647;1332;3029445;-64
2022/11/22 07:26:40;;;;;;;2.40;1.90;;;;;;;5.53;75.64;98444.79;24633;1333;3050345;-64
2022/11/22 07:29:10;;;;;;;2.00;1.40;;;;;;;5.50;74.80;98439.05;24755;1324;3026861;-63
2022/11/22 07:31:39;;;;;;;3.20;2.40;;;;;;;5.16;75.55;98449.13;24626;1337;3069419;-68
2022/11/22 07:34:09;;;;;;;3.80;2.60;;;;;;;5.14;76.03;98451.80;24887;1321;3027774;-63
2022/11/22 07:36:38;;;;;;;5.00;3.00;;;;;;;4.87;77.66;98456.87;24619;1334;3050808;-67
2022/11/22 07:39:07;;;;;;;3.40;2.60;;;;;;;4.39;79.80;98457.35;24581;1324;3029040;-62
2022/11/22 07:41:36;;;;;;;3.70;2.80;;;;;;;4.13;81.14;98458.80;24545;1335;3052810;-60
2022/11/22 07:44:05;;;;;;;2.40;1.40;;;;;;;4.07;82.17;98466.02;24666;1317;3028759;-62
2022/11/22 07:46:34;;;;;;;2.30;1.50;;;;;;;4.72;80.36;98465.65;24584;1333;3050277;-62
2022/11/22 07:49:03;;;;;;;3.00;1.90;;;;;;;5.07;78.16;98461.08;24513;1329;3025888;-60
2022/11/22 07:51:33;;;;;;;4.60;2.80;;;;;;;5.01;77.45;98455.13;24625;1330;3026793;-65
2022/11/22 07:54:04;;;;;;;6.50;2.50;;;;;;;4.88;76.90;98451.14;24650;1334;3050129;-63
2022/11/22 07:56:33;;;;;;;2.90;1.80;;;;;;;4.86;76.91;98440.33;24564;1325;3027598;-61
2022/11/22 07:59:02;;;;;;;2.50;1.80;;;;;;;5.00;75.93;98434.36;24583;1326;3026448;-63
2022/11/22 08:01:31;;;;;;;2.70;1.90;;;;;;;4.85;75.85;98438.79;24520;1325;3051606;-65
2022/11/22 08:04:00;;;;;;;4.00;2.40;;;;;;;4.86;75.79;98442.36;24635;1331;3028064;-64
2022/11/22 08:06:29;;;;;;;4.90;2.90;;;;;;;4.63;76.58;98440.12;24537;1334;3053677;-64
2022/11/22 08:09:00;;;;;;;5.30;3.10;;;;;;;4.39;77.58;98439.99;24535;1331;3027534;-65
2022/11/22 08:11:28;;;;;;;6.50;3.70;;;;;;;4.29;78.49;98450.02;24566;1329;3028112;-62
2022/11/22 08:13:57;;;;;;;8.00;4.20;;;;;;;4.39;78.52;98446.59;24557;1333;3052086;-63
2022/11/22 08:16:28;;;;;;;5.40;2.60;;;;;;;4.44;78.77;98452.55;24572;1341;3029515;-63
2022/11/22 08:18:57;;;;;;;3.40;2.10;;;;;;;5.08;77.75;98461.30;24535;1334;3027016;-63
2022/11/22 08:21:27;;;;;;;7.40;2.70;;;;;;;5.61;75.51;98459.11;24581;1337;3053804;-64
2022/11/22 08:23:57;;;;;;;4.40;2.70;;;;;;;5.88;74.75;98461.44;24445;1330;3028223;-65
2022/11/22 08:26:26;;;;;;;4.90;2.90;;;;;;;5.83;74.27;98466.06;24560;1330;3051140;-65
2022/11/22 08:28:55;;;;;;;5.50;3.00;;;;;;;5.73;74.50;98473.23;24756;1330;3025575;-62
2022/11/22 08:31:25;;;;;;;5.60;3.20;;;;;;;5.63;74.83;98474.46;24699;1336;3057149;-63
2022/11/22 08:34:20;;;;;;;5.00;3.00;;;;;;;5.58;75.21;98464.84;24574;1334;3053545;-60
2022/11/22 08:36:53;;;;;;;8.10;3.70;;;;;;;5.30;75.12;98451.79;24591;1332;3053883;-63
2022/11/22 08:39:23;;;;;;;7.20;4.70;;;;;;;5.25;75.54;98450.52;24532;1337;3027066;-62
2022/11/22 08:41:52;;;;;;;6.20;4.10;;;;;;;4.88;76.49;98457.05;24656;1324;3029641;-61
2022/11/22 08:44:21;;;;;;;6.80;4.40;;;;;;;4.85;77.07;98464.64;24647;1340;3053366;-63
2022/11/22 08:46:50;;;;;;;7.20;3.40;;;;;;;4.86;77.05;98469.45;24636;1327;3026299;-65
2022/11/22 08:49:19;;;;;;;5.50;4.00;;;;;;;4.92;76.75;98463.57;24581;1330;3053032;-62
2022/11/22 08:51:48;;;;;;;5.30;2.60;;;;;;;4.81;76.80;98454.30;24665;1337;3026393;-64
2022/11/22 08:54:17;;;;;;;5.10;2.70;;;;;;;5.28;76.17;98455.02;24655;1334;3025991;-66
2022/11/22 08:56:47;;;;;;;6.90;3.70;;;;;;;5.92;73.57;98442.59;24647;1330;3053101;-63
2022/11/22 08:59:16;;;;;;;6.00;4.10;;;;;;;5.80;72.57;98435.62;24678;1337;3028729;-62
2022/11/22 09:01:45;;;;;;;9.10;4.40;;;;;;;5.74;72.83;98430.09;24648;1332;3057604;-64
2022/11/22 09:04:14;;;;;;;11.60;6.10;;;;;;;5.42;72.22;98439.17;24624;1340;3027878;-65
2022/11/22 09:06:43;;;;;;;9.90;6.00;;;;;;;5.06;73.20;98435.95;24628;1323;3049430;-64
2022/11/22 09:09:12;;;;;;;11.40;6.90;;;;;;;5.14;73.58;98437.78;24644;1332;3027385;-66
2022/11/22 09:11:41;;;;;;;15.80;7.90;;;;;;;4.94;74.06;98439.72;24544;1329;3070463;-65
2022/11/22 09:14:10;;;;;;;11.80;7.40;;;;;;;5.02;74.09;98445.02;24719;1329;3026452;-67
2022/11/22 09:16:39;;;;;;;14.10;8.20;;;;;;;4.94;74.65;98454.30;24657;1334;3050422;-64
2022/11/22 09:19:09;;;;;;;13.90;7.90;;;;;;;5.04;74.95;98457.36;24567;1330;3026037;-65
2022/11/22 09:21:39;;;;;;;14.40;7.50;;;;;;;5.02;74.35;98450.73;24555;1329;3026840;-65
2022/11/22 09:24:08;;;;;;;13.40;7.30;;;;;;;4.97;74.56;98445.08;24512;1331;3028020;-67
2022/11/22 09:26:37;;;;;;;12.20;7.60;;;;;;;4.96;74.65;98448.63;24540;1331;3069757;-66
2022/11/22 09:29:06;;;;;;;13.70;6.90;;;;;;;4.84;74.76;98454.10;24642;1330;3026785;-66
2022/11/22 09:31:35;;;;;;;12.10;7.40;;;;;;;4.87;75.06;98459.20;24678;1334;3051149;-65
2022/11/22 09:34:04;;;;;;;14.80;7.50;;;;;;;4.86;75.33;98456.11;24713;1325;3027123;-62
2022/11/22 09:36:34;;;;;;;9.30;6.30;;;;;;;4.82;75.83;98450.25;24471;1327;3053918;-67
2022/11/22 09:39:02;;;;;;;7.90;5.00;;;;;;;5.43;74.58;98446.23;24656;1330;3026646;-67
2022/11/22 09:41:47;;;;;;;10.00;6.20;;;;;;;6.03;71.98;98439.20;24571;1333;3052417;-62
2022/11/22 09:45:11;;;;;;;12.80;7.50;;;;;;;6.49;71.48;98438.10;24599;1323;3056130;-65
2022/11/22 09:47:57;;;;;;;16.30;7.90;;;;;;;6.00;71.14;98428.77;24665;1332;3050689;-63
2022/11/22 09:50:38;;;;;;;11.30;6.90;;;;;;;5.88;71.67;98419.55;24644;1335;3069185;-63
2022/11/22 09:53:11;;;;;;;13.30;7.00;;;;;;;5.73;71.96;98419.20;24672;1337;3051245;-61
2022/11/22 09:55:47;;;;;;;11.10;7.40;;;;;;;5.63;72.37;98420.65;24496;1328;3055942;-63
2022/11/22 09:58:41;;;;;;;14.20;7.50;;;;;;;5.47;73.04;98413.54;24597;1340;3053642;-65
2022/11/22 10:01:22;;;;;;;11.70;7.40;;;;;;;5.43;73.99;98417.77;24566;1325;3056309;-63
2022/11/22 10:04:16;;;;;;;11.00;7.40;;;;;;;5.04;74.68;98423.54;24496;1337;3050916;-64
2022/11/22 10:06:52;;;;;;;13.10;7.00;;;;;;;4.99;75.07;98432.47;24654;1334;3053573;-63
2022/11/22 10:09:48;;;;;;;12.00;6.50;;;;;;;5.01;75.17;98434.98;24604;1331;3049722;-62
2022/11/22 10:12:26;;;;;;;14.00;7.30;;;;;;;4.92;75.10;98424.55;24503;1334;3026290;-63
2022/11/22 10:15:26;;;;;;;14.20;6.70;;;;;;;4.87;75.68;98422.91;24601;1337;3049644;-62
2022/11/22 10:18:15;;;;;;;9.20;7.30;;;;;;;4.80;75.69;98424.30;24700;1334;3057732;-63
2022/11/22 10:20:45;;;;;;;13.20;7.80;;;;;;;4.80;76.08;98429.84;24563;1337;3053524;-63
2022/11/22 10:23:19;;;;;;;11.40;7.20;;;;;;;4.78;76.43;98428.42;24522;1332;3028171;-63
2022/11/22 10:25:58;;;;;;;10.20;5.90;;;;;;;5.25;75.43;98428.63;24486;1329;3058081;-64
2022/11/22 11:59:19;;;;;;;7.90;3.80;;;;;;;2.57;85.69;98458.84;30815;1331;3012609;-67
2022/11/22 12:02:14;;;;;;;8.30;5.30;;;;;;;3.26;83.83;98439.83;24486;1327;3069414;-70
2022/11/22 12:04:53;;;;;;;7.90;4.00;;;;;;;3.87;80.59;98421.09;24607;1337;3050208;-68
2022/11/22 12:07:23;;;;;;;9.80;5.60;;;;;;;3.98;79.45;98420.05;24539;1327;3056874;-68
2022/11/22 12:09:54;;;;;;;11.50;6.90;;;;;;;3.81;79.27;98425.36;24546;1326;3026359;-67
2022/11/22 12:12:26;;;;;;;10.90;7.20;;;;;;;3.77;79.08;98437.54;23348;1333;3026571;-66
2022/11/22 12:15:25;;;;;;;13.20;7.60;;;;;;;3.66;79.10;98439.09;24524;1326;3050122;-71
2022/11/22 12:18:06;;;;;;;12.50;7.40;;;;;;;3.58;79.24;98447.13;24528;1333;3052888;-66
2022/11/22 12:20:40;;;;;;;9.30;5.70;;;;;;;3.54;79.16;98449.20;24526;1323;3050336;-70
2022/11/22 12:26:31;;;;;;;6.20;3.60;;;;;;;3.38;79.56;98446.49;30785;1345;3014869;-66
2022/11/22 12:29:25;;;;;;;8.10;4.10;;;;;;;3.91;78.37;98446.75;24530;1327;3068651;-64
2022/11/22 12:32:01;;;;;;;9.40;5.90;;;;;;;4.56;76.53;98449.88;24726;1334;3029613;-64
2022/11/22 12:35:02;;;;;;;13.20;7.10;;;;;;;4.46;75.97;98452.77;24592;1339;3051093;-64
2022/11/22 12:38:10;;;;;;;11.90;6.80;;;;;;;4.19;76.07;98462.30;24652;1335;3068108;-67
2022/11/22 12:40:44;;;;;;;10.00;5.60;;;;;;;3.94;77.06;98459.94;23951;1339;4698250;-65
2022/11/22 12:43:23;;;;;;;9.90;5.50;;;;;;;3.69;77.91;98449.85;24528;1339;3050169;-65
2022/11/22 12:46:13;;;;;;;10.30;4.80;;;;;;;3.51;78.60;98459.59;24707;1333;3069016;-66
2022/11/22 12:48:53;;;;;;;8.00;4.60;;;;;;;3.60;78.76;98463.64;24660;1333;3050967;-65
2022/11/22 12:51:46;;;;;;;6.60;4.50;;;;;;;3.58;78.33;98461.98;24648;1333;3057652;-65
2022/11/22 12:54:18;;;;;;;5.70;4.20;;;;;;;3.57;78.58;98464.16;24747;1323;3052802;-65
2022/11/22 12:56:49;;;;;;;5.00;3.20;;;;;;;3.53;78.69;98464.15;24695;1326;3026220;-66
2022/11/22 12:59:23;;;;;;;3.70;2.90;;;;;;;3.95;77.87;98459.71;24536;1327;3025835;-66
2022/11/22 13:01:59;;;;;;;3.10;2.80;;;;;;;4.50;76.07;98463.88;24650;1330;3052674;-70
2022/11/22 13:04:45;;;;;;;5.40;3.90;;;;;;;4.66;75.29;98472.04;24591;1339;3050082;-67
2022/11/22 13:07:24;;;;;;;8.30;4.90;;;;;;;4.41;75.24;98471.78;24580;1333;3068826;-62
2022/11/22 13:09:59;;;;;;;7.10;4.40;;;;;;;4.13;76.11;98468.14;24578;1342;3049456;-67
2022/11/22 13:12:33;;;;;;;5.40;4.10;;;;;;;3.89;76.96;98461.03;24654;1333;3058018;-64
2022/11/22 13:15:04;;;;;;;4.80;3.80;;;;;;;3.79;77.27;98457.19;24468;1329;3052872;-68
2022/11/22 13:17:34;;;;;;;5.90;4.30;;;;;;;3.67;77.12;98454.48;24559;1332;3026338;-66
2022/11/22 13:20:15;;;;;;;5.80;4.10;;;;;;;3.46;77.74;98463.10;24623;1322;3053361;-66
2022/11/22 13:22:58;;;;;;;4.50;3.50;;;;;;;3.33;78.33;98469.77;24578;1321;3053069;-64
2022/11/22 13:25:57;;;;;;;5.40;3.80;;;;;;;3.22;79.01;98479.10;24578;1324;3049507;-62
2022/11/22 13:28:28;;;;;;;5.20;3.10;;;;;;;3.21;79.38;98477.97;24730;1332;3069950;-68
2022/11/22 13:31:09;;;;;;;6.00;2.50;;;;;;;3.31;79.17;98477.13;24595;1333;3027228;-69
2022/11/22 13:33:51;;;;;;;4.00;2.40;;;;;;;3.85;78.15;98469.92;24706;1322;3057673;-64
2022/11/22 13:36:30;;;;;;;4.50;2.90;;;;;;;4.28;76.54;98472.63;24633;1326;3053845;-64
2022/11/22 13:39:00;;;;;;;4.60;3.60;;;;;;;3.98;76.43;98480.52;24802;1333;3054045;-63
2022/11/22 13:41:35;;;;;;;5.40;3.10;;;;;;;3.76;77.65;98483.65;24567;1336;3028202;-65
2022/11/22 13:44:27;;;;;;;6.10;3.40;;;;;;;3.63;78.05;98478.59;24581;1333;3053454;-66
2022/11/22 13:46:59;;;;;;;6.90;3.40;;;;;;;3.56;78.32;98479.27;24615;1327;3049188;-65
2022/11/22 13:49:41;;;;;;;5.50;4.10;;;;;;;3.25;78.98;98480.69;24627;1333;3026873;-67
2022/11/22 13:52:14;;;;;;;5.30;4.00;;;;;;;3.30;78.66;98484.64;24652;1333;3052006;-66
2022/11/22 14:06:29;;;;;;;3.80;2.80;;;;;;;2.88;79.57;98504.52;31060;1328;3013180;-66
2022/11/22 14:09:27;;;;;;;3.10;2.70;;;;;;;3.59;78.07;98496.05;24491;1331;3026522;-65
2022/11/22 14:12:13;;;;;;;5.80;3.10;;;;;;;4.39;74.72;98491.11;24543;1334;3050877;-65
2022/11/22 14:15:42;;;;;;;3.50;2.90;;;;;;;4.35;73.96;98495.50;24510;1340;3056722;-63
2022/11/22 14:18:46;;;;;;;5.30;3.40;;;;;;;4.15;74.21;98490.44;23738;1333;3053792;-65
2022/11/22 14:21:38;;;;;;;5.20;3.60;;;;;;;3.60;75.12;98497.94;24558;1340;3052391;-70
2022/11/22 14:24:39;;;;;;;5.20;3.20;;;;;;;3.40;75.83;98501.61;24494;1334;3051267;-63
2022/11/22 14:27:39;;;;;;;5.30;3.60;;;;;;;3.26;76.82;98499.88;24680;1325;3053195;-63
2022/11/22 14:30:20;;;;;;;5.10;3.40;;;;;;;3.26;76.93;98509.02;24693;1333;3051408;-64
2022/11/22 14:32:54;;;;;;;5.70;3.70;;;;;;;3.21;77.28;98512.74;24522;1333;3069094;-67
2022/11/22 14:35:30;;;;;;;5.00;3.70;;;;;;;3.06;77.18;98512.52;24696;1333;3051922;-64
2022/11/22 14:38:01;;;;;;;8.80;5.00;;;;;;;3.00;78.22;98516.29;24696;1327;3028800;-64
2022/11/22 14:40:39;;;;;;;5.80;4.00;;;;;;;2.91;78.50;98522.89;24603;1333;3069289;-64
2022/11/22 14:43:33;;;;;;;6.30;4.50;;;;;;;2.98;78.49;98529.16;24524;1327;3050371;-63
2022/11/22 14:46:15;;;;;;;6.50;3.80;;;;;;;3.02;78.51;98536.59;24514;1333;3056663;-65
2022/11/22 14:49:24;;;;;;;6.70;4.30;;;;;;;3.76;76.97;98539.41;24588;1335;3053185;-65
2022/11/22 14:51:54;;;;;;;8.50;5.30;;;;;;;4.01;75.17;98541.19;24585;1343;3055226;-62
2022/11/22 14:54:29;;;;;;;8.50;5.30;;;;;;;3.86;75.31;98538.61;24623;1320;3025541;-65
2022/11/22 14:56:59;;;;;;;7.20;4.50;;;;;;;3.96;75.36;98540.40;24527;1333;3052370;-63
2022/11/22 14:59:47;;;;;;;8.60;5.00;;;;;;;3.78;75.25;98538.82;24695;1333;3026000;-63
2022/11/22 15:02:52;;;;;;;7.60;4.50;;;;;;;3.62;75.74;98534.22;24583;1339;3070637;-63
2022/11/22 15:05:42;;;;;;;6.00;4.10;;;;;;;3.21;76.84;98536.59;24990;1333;3049216;-65
2022/11/22 15:08:47;;;;;;;7.90;4.80;;;;;;;3.09;77.50;98534.20;25337;1333;3056876;-63
2022/11/22 15:11:59;;;;;;;16.20;7.20;;;;;;;2.96;77.94;98536.70;25268;1326;3053052;-64
2022/11/22 15:15:19;;;;;;;14.00;7.50;;;;;;;2.74;78.75;98554.27;24649;1333;3053139;-62
2022/11/22 15:17:50;;;;;;;13.60;7.90;;;;;;;2.59;79.17;98562.83;24594;1326;3051939;-64
2022/11/22 15:20:39;;;;;;;13.00;6.70;;;;;;;2.63;79.14;98559.05;24548;1343;3026869;-64
2022/11/22 15:23:19;;;;;;;11.60;7.10;;;;;;;2.66;79.17;98565.14;24491;1337;3049452;-65
2022/11/22 15:25:57;;;;;;;12.10;6.00;;;;;;;2.62;78.89;98572.38;24544;1337;3071464;-66
2022/11/22 15:28:30;;;;;;;7.70;4.70;;;;;;;3.23;77.85;98571.96;24566;1334;3051087;-66
2022/11/22 15:31:07;;;;;;;5.80;3.60;;;;;;;3.77;75.23;98576.80;24640;1333;3027575;-62
2022/11/22 15:33:36;;;;;;;5.90;4.20;;;;;;;3.94;74.72;98586.06;24670;1327;3053821;-65
2022/11/22 15:36:35;;;;;;;8.50;4.20;;;;;;;3.71;74.32;98594.91;24641;1332;3027121;-65
2022/11/22 15:39:04;;;;;;;10.10;4.50;;;;;;;3.29;74.99;98603.39;24676;1317;3057355;-64
2022/11/22 15:41:36;;;;;;;8.90;4.70;;;;;;;3.07;75.61;98604.85;24620;1332;3026235;-65
2022/11/22 15:44:07;;;;;;;8.30;5.00;;;;;;;2.83;76.33;98610.92;24612;1326;3027922;-69
2022/11/22 15:46:37;;;;;;;9.10;5.50;;;;;;;2.84;76.75;98603.64;24764;1321;3057210;-67
2022/11/22 15:49:10;;;;;;;9.10;5.20;;;;;;;2.66;77.14;98603.16;24659;1334;3026149;-68
2022/11/22 15:51:51;;;;;;;10.40;5.50;;;;;;;2.51;77.99;98597.74;24738;1327;3050967;-70
2022/11/22 15:54:22;;;;;;;8.10;4.30;;;;;;;2.60;77.47;98591.33;24668;1326;3057886;-67
2022/11/22 15:57:03;;;;;;;7.80;4.50;;;;;;;2.33;78.31;98597.60;24631;1313;3052763;-66
2022/11/22 15:59:40;;;;;;;8.90;5.00;;;;;;;2.30;78.41;98599.11;24641;1335;3054759;-68
2022/11/22 16:02:20;;;;;;;9.40;4.30;;;;;;;2.24;79.33;98595.58;24504;1336;3051047;-66
2022/11/22 16:04:51;;;;;;;5.60;3.30;;;;;;;2.78;78.38;98580.70;24547;1337;3051943;-65
2022/11/22 16:07:35;;;;;;;7.90;3.80;;;;;;;3.38;76.27;98576.52;24484;1334;3026500;-65
2022/11/22 16:10:06;;;;;;;9.60;5.30;;;;;;;3.32;75.67;98574.38;24722;1324;3068579;-64
2022/11/22 16:13:24;;;;;;;9.00;5.20;;;;;;;3.08;76.25;98579.94;24610;1340;3049829;-67
2022/11/22 16:16:12;;;;;;;9.10;4.90;;;;;;;2.78;77.20;98577.58;24617;1327;3057325;-65
2022/11/22 16:19:33;;;;;;;9.80;5.50;;;;;;;2.60;77.93;98583.74;24641;1326;3055290;-68
2022/11/22 16:22:02;;;;;;;10.70;6.20;;;;;;;2.38;78.95;98588.63;24589;1334;3054087;-66
2022/11/22 16:24:31;;;;;;;12.80;6.70;;;;;;;2.36;79.42;98598.52;24689;1324;3027496;-66
2022/11/22 16:27:04;;;;;;;10.40;6.00;;;;;;;2.21;79.57;98607.24;24653;1324;3051622;-62
2022/11/22 16:29:34;;;;;;;13.00;7.20;;;;;;;2.07;80.09;98610.23;24784;1334;3026215;-63
2022/11/22 16:32:13;;;;;;;13.60;8.10;;;;;;;2.06;80.78;98627.57;24580;1334;3027939;-64
2022/11/22 16:34:46;;;;;;;13.30;7.20;;;;;;;2.02;80.86;98639.63;24606;1341;3052672;-65
2022/11/22 16:37:31;;;;;;;12.20;5.70;;;;;;;2.02;81.23;98650.17;24570;1331;3026150;-65